Iola, Wisconsin
Current Conditions -  °F | °C
As of 12:35 AM on Saturday 25 Oct 2014 (Local Time) from KPCZ Reporting Station
Overcast Overcast  
Wind Chill: 59°   Ceiling: 1100
Heat Index: 59°   Visibility: 7mi
Dew Point: 56°   Wind: 12mph
Humidity: 90%   Direction: 250°WSW
Pressure: 29.83"   Gusts: NA
Location:  44.51°N, 89.13°W
Report Text: KPCZ 250535Z AUTO 25010KT 7SM OVC011 15/14 A2983 RMK AO2 T01510135
Loading
Personal Weather Stations






























Interactive Weather Map
Tropical Storm Tracking
New forecast layout! Learn more

10-Day Weather Forecast

Advertisements
Track Severe Weather on mobile